Time;durP1;ratioP1;P1;durP2;ratioP2;P2;SDS_P1;SDS_P2;PMS_P1;PMS_P2;Temp;Humidity;BMP_temperature;BMP_pressure;BME280_temperature;BME280_humidity;BME280_pressure;Samples;Min_cycle;Max_cycle;Signal;HPM_P1;HPM_P2
2022/11/01 00:02:05;;;;;;;9.05;5.63;;;10.20;93.20;;;;;;5050677;28;20248;-66
2022/11/01 00:04:32;;;;;;;9.52;5.32;;;10.20;93.00;;;;;;5050550;28;20214;-66
2022/11/01 00:06:59;;;;;;;10.95;5.30;;;10.20;92.50;;;;;;5050908;28;20191;-65
2022/11/01 00:09:27;;;;;;;6.70;4.93;;;10.10;91.70;;;;;;5050223;28;20190;-66
2022/11/01 00:11:56;;;;;;;6.95;4.80;;;10.10;91.50;;;;;;5046889;28;20214;-66
2022/11/01 00:14:23;;;;;;;8.35;5.40;;;9.80;91.50;;;;;;5050541;28;20656;-66
2022/11/01 00:16:52;;;;;;;8.15;4.75;;;9.70;91.50;;;;;;5050506;28;20222;-66
2022/11/01 00:19:19;;;;;;;9.90;6.35;;;9.60;91.80;;;;;;5050155;28;20658;-69
2022/11/01 00:21:46;;;;;;;10.02;5.90;;;9.50;91.80;;;;;;5050317;28;20191;-66
2022/11/01 00:24:13;;;;;;;8.20;4.68;;;9.50;92.00;;;;;;5050494;28;20194;-66
2022/11/01 00:26:42;;;;;;;6.60;4.40;;;9.40;92.30;;;;;;5050367;28;20194;-68
2022/11/01 00:29:12;;;;;;;10.93;5.90;;;9.40;92.60;;;;;;5049534;28;20197;-67
2022/11/01 00:31:41;;;;;;;9.70;5.30;;;9.30;92.80;;;;;;5051239;28;20226;-70
2022/11/01 00:34:11;;;;;;;12.00;4.88;;;9.30;93.70;;;;;;5050685;28;20209;-66
2022/11/01 00:36:39;;;;;;;7.57;4.85;;;9.20;94.40;;;;;;5052250;28;20191;-66
2022/11/01 00:39:07;;;;;;;9.68;4.78;;;9.20;94.60;;;;;;5051365;28;20197;-67
2022/11/01 00:41:34;;;;;;;7.75;6.20;;;9.20;94.70;;;;;;5052135;28;20191;-66
2022/11/01 00:44:01;;;;;;;11.32;7.03;;;9.20;95.20;;;;;;5051796;28;20206;-66
2022/11/01 00:46:29;;;;;;;8.40;4.70;;;9.20;95.00;;;;;;5050570;28;20225;-65
2022/11/01 00:48:56;;;;;;;6.63;4.63;;;9.00;94.90;;;;;;5051511;28;20195;-65
2022/11/01 00:51:25;;;;;;;8.30;5.97;;;9.00;95.20;;;;;;5051586;28;20191;-65
2022/11/01 00:53:52;;;;;;;6.43;5.10;;;9.00;95.30;;;;;;5051264;28;20251;-65
2022/11/01 00:56:19;;;;;;;10.80;4.55;;;9.00;95.40;;;;;;5051515;28;20191;-65
2022/11/01 00:58:46;;;;;;;5.35;3.88;;;9.00;95.70;;;;;;5051216;28;20186;-66
2022/11/01 01:01:14;;;;;;;6.60;5.00;;;9.10;95.60;;;;;;5051350;28;20248;-66
2022/11/01 01:03:41;;;;;;;9.80;5.35;;;9.10;95.40;;;;;;5050711;28;20234;-67
2022/11/01 01:06:10;;;;;;;5.78;3.85;;;9.20;95.60;;;;;;5051062;28;20297;-65
2022/11/01 01:08:41;;;;;;;10.10;5.00;;;9.20;95.70;;;;;;5051571;28;20190;-65
2022/11/01 01:11:09;;;;;;;6.60;4.68;;;9.10;96.10;;;;;;5051346;28;20183;-66
2022/11/01 01:13:41;;;;;;;10.40;4.47;;;9.10;96.40;;;;;;5051394;28;20190;-66
2022/11/01 01:16:12;;;;;;;6.80;5.13;;;9.00;96.30;;;;;;5051054;28;20599;-66
2022/11/01 01:18:39;;;;;;;4.90;4.13;;;9.00;96.40;;;;;;5051345;28;20194;-67
2022/11/01 01:21:07;;;;;;;9.70;4.22;;;9.10;96.50;;;;;;5051211;28;20186;-66
2022/11/01 01:23:34;;;;;;;5.85;4.60;;;9.00;96.60;;;;;;5051567;28;20210;-65
2022/11/01 01:26:09;;;;;;;7.32;4.47;;;9.00;96.20;;;;;;5050918;28;20603;-65
2022/11/01 01:28:39;;;;;;;6.65;4.50;;;8.80;96.60;;;;;;5050721;28;20193;-66
2022/11/01 01:31:11;;;;;;;6.68;3.80;;;8.80;97.00;;;;;;5050802;28;20209;-68
2022/11/01 01:33:38;;;;;;;6.90;5.40;;;8.80;97.10;;;;;;5051556;28;20194;-67
2022/11/01 01:36:13;;;;;;;6.10;4.80;;;8.90;97.10;;;;;;5050436;28;20222;-66
2022/11/01 01:38:41;;;;;;;5.30;4.15;;;8.90;97.00;;;;;;5051047;28;20259;-67
2022/11/01 01:43:56;;;;;;;5.13;4.55;;;8.90;96.50;;;;;;5051462;28;20323;-66
2022/11/01 01:46:23;;;;;;;6.20;4.25;;;9.00;96.40;;;;;;5050595;28;20218;-66
2022/11/01 01:48:56;;;;;;;6.93;4.03;;;9.00;96.50;;;;;;5050984;28;20248;-66
2022/11/01 01:51:27;;;;;;;6.68;4.65;;;8.90;96.60;;;;;;5050704;28;20541;-65
2022/11/01 01:53:57;;;;;;;5.93;3.88;;;9.00;96.70;;;;;;5051138;28;20676;-66
2022/11/01 01:56:30;;;;;;;6.18;3.92;;;9.00;96.30;;;;;;5050497;28;20737;-66
2022/11/01 01:59:02;;;;;;;5.40;4.03;;;9.10;96.00;;;;;;5054096;28;20197;-66
2022/11/01 02:01:30;;;;;;;9.73;4.20;;;9.10;95.90;;;;;;5055040;28;20286;-66
2022/11/01 02:03:57;;;;;;;6.32;4.68;;;9.10;95.60;;;;;;5054349;28;20198;-66
2022/11/01 02:06:25;;;;;;;6.95;4.35;;;9.20;95.70;;;;;;5054923;28;20842;-66
2022/11/01 02:08:55;;;;;;;5.25;4.32;;;9.20;95.70;;;;;;5054174;28;20192;-66
2022/11/01 02:11:22;;;;;;;8.10;4.88;;;9.20;95.40;;;;;;5054870;28;20277;-66
2022/11/01 02:13:51;;;;;;;8.23;5.97;;;9.10;95.40;;;;;;5054291;28;20186;-65
2022/11/01 02:16:43;;;;;;;9.88;5.38;;;9.00;95.60;;;;;;5054422;28;20234;-66
2022/11/01 02:19:57;;;;;;;7.95;4.47;;;8.90;95.30;;;;;;5054394;28;20290;-66
2022/11/01 02:22:32;;;;;;;8.05;4.30;;;8.80;95.00;;;;;;5049630;28;20209;-65
2022/11/01 02:25:24;;;;;;;10.02;4.80;;;8.70;95.10;;;;;;5053757;28;20225;-66
2022/11/01 02:28:09;;;;;;;7.55;4.90;;;8.60;95.20;;;;;;5054413;28;20185;-66
2022/11/01 02:30:43;;;;;;;6.20;4.45;;;8.60;95.30;;;;;;5042440;28;20190;-67
2022/11/01 02:33:26;;;;;;;9.65;5.18;;;8.60;95.60;;;;;;5054423;28;20563;-67
2022/11/01 02:36:01;;;;;;;4.75;3.30;;;8.70;95.90;;;;;;5054312;28;20202;-65
2022/11/01 02:38:33;;;;;;;6.18;4.50;;;8.70;96.20;;;;;;5053610;28;20182;-66
2022/11/01 02:41:06;;;;;;;7.82;3.80;;;8.70;96.40;;;;;;5054212;28;20209;-66
2022/11/01 02:43:42;;;;;;;5.88;3.20;;;8.70;96.80;;;;;;5054350;28;20587;-65
2022/11/01 02:48:58;;;;;;;6.57;3.47;;;8.70;97.30;;;;;;5053424;28;20220;-65
2022/11/01 02:51:26;;;;;;;4.63;3.08;;;8.70;97.10;;;;;;5054269;28;20248;-66
2022/11/01 02:53:53;;;;;;;7.38;4.75;;;8.70;97.20;;;;;;5053462;28;20186;-66
2022/11/01 02:56:22;;;;;;;6.15;3.22;;;8.80;97.20;;;;;;5053267;28;20710;-68
2022/11/01 02:58:55;;;;;;;8.35;4.22;;;8.80;97.00;;;;;;5053482;28;20193;-66
2022/11/01 03:01:28;;;;;;;5.47;2.97;;;8.90;97.10;;;;;;5053465;28;20198;-67
2022/11/01 03:04:00;;;;;;;11.60;3.78;;;8.90;96.90;;;;;;5034065;28;20226;-66
2022/11/01 03:06:33;;;;;;;8.45;4.40;;;8.80;97.00;;;;;;5033838;28;20273;-68
2022/11/01 03:09:06;;;;;;;4.07;2.95;;;8.70;97.30;;;;;;5032845;28;20531;-67
2022/11/01 03:11:42;;;;;;;8.93;2.70;;;8.60;97.80;;;;;;5034454;28;20195;-67
2022/11/01 03:14:18;;;;;;;6.85;3.60;;;8.70;96.70;;;;;;5053697;28;20701;-67
2022/11/01 03:16:54;;;;;;;4.30;3.03;;;8.60;96.60;;;;;;5052680;28;20256;-67
2022/11/01 03:19:34;;;;;;;8.02;3.75;;;8.50;97.10;;;;;;5053586;28;20576;-67
2022/11/01 03:22:17;;;;;;;7.20;3.85;;;8.50;97.20;;;;;;5053062;28;20182;-66
2022/11/01 03:24:49;;;;;;;7.30;3.22;;;8.50;97.40;;;;;;5052855;28;20191;-66
2022/11/01 03:27:23;;;;;;;9.45;2.85;;;8.60;98.00;;;;;;5053413;28;20222;-67
2022/11/01 03:29:57;;;;;;;5.63;3.10;;;8.60;98.20;;;;;;5052888;28;20185;-66
2022/11/01 03:32:27;;;;;;;8.63;3.33;;;8.60;97.90;;;;;;5053545;28;20190;-66
2022/11/01 03:34:59;;;;;;;6.35;4.03;;;8.60;97.40;;;;;;5052692;28;20785;-67
2022/11/01 03:37:29;;;;;;;5.50;3.05;;;8.60;97.50;;;;;;5053163;28;20695;-66
2022/11/01 03:39:58;;;;;;;4.28;2.60;;;8.60;97.20;;;;;;5052751;28;20190;-66
2022/11/01 03:42:25;;;;;;;5.40;2.60;;;8.60;97.10;;;;;;5053279;28;20236;-66
2022/11/01 03:44:58;;;;;;;5.63;3.53;;;8.70;97.10;;;;;;5052413;28;20532;-66
2022/11/01 03:47:25;;;;;;;5.80;3.13;;;8.70;96.70;;;;;;5052855;28;20313;-66
2022/11/01 03:50:14;;;;;;;4.05;2.80;;;8.60;96.60;;;;;;5052619;28;20310;-68
2022/11/01 03:52:41;;;;;;;8.15;3.00;;;8.60;96.80;;;;;;5052152;28;20230;-69
2022/11/01 03:55:17;;;;;;;6.20;2.35;;;8.60;96.70;;;;;;5052181;28;20226;-67
2022/11/01 03:57:45;;;;;;;7.07;4.10;;;8.60;96.50;;;;;;5052643;28;20190;-66
2022/11/01 04:00:21;;;;;;;4.28;2.38;;;8.70;96.40;;;;;;5052825;28;20281;-66
2022/11/01 04:02:48;;;;;;;6.90;3.40;;;8.80;96.40;;;;;;5052861;28;20190;-66
2022/11/01 04:05:18;;;;;;;4.57;2.67;;;8.90;95.90;;;;;;5052562;28;20653;-67
2022/11/01 04:07:45;;;;;;;3.67;2.80;;;8.90;95.70;;;;;;5052767;28;20234;-67
2022/11/01 04:10:13;;;;;;;6.78;2.22;;;8.90;95.50;;;;;;5052696;28;20592;-67
2022/11/01 04:12:44;;;;;;;4.65;3.47;;;8.90;95.30;;;;;;5032775;28;20202;-68
2022/11/01 04:21:02;;;;;;;7.60;3.00;;;8.80;94.60;;;;;;5037433;28;20613;-67
2022/11/01 04:23:29;;;;;;;5.20;3.10;;;8.80;94.40;;;;;;5052296;28;20730;-66
2022/11/01 04:25:56;;;;;;;4.40;2.65;;;8.70;94.10;;;;;;5051789;28;20222;-67
2022/11/01 04:28:23;;;;;;;5.05;2.50;;;8.70;93.40;;;;;;5052381;28;20190;-67
2022/11/01 04:30:51;;;;;;;6.90;5.40;;;8.60;93.70;;;;;;5052334;28;20190;-66
2022/11/01 04:33:18;;;;;;;6.85;3.50;;;8.60;93.90;;;;;;5052491;28;20240;-67
2022/11/01 04:35:45;;;;;;;5.57;2.40;;;8.50;94.40;;;;;;5051774;28;20194;-68
2022/11/01 04:38:19;;;;;;;4.35;2.75;;;8.40;94.20;;;;;;5051588;28;20190;-68
2022/11/01 04:40:46;;;;;;;4.93;2.97;;;8.30;93.10;;;;;;5051807;28;20175;-67
2022/11/01 04:43:16;;;;;;;11.48;3.30;;;8.10;93.50;;;;;;5052327;28;20198;-68
2022/11/01 04:45:43;;;;;;;6.53;2.95;;;8.20;93.80;;;;;;5051782;28;20214;-67
2022/11/01 04:48:16;;;;;;;3.65;2.88;;;8.10;94.30;;;;;;5040386;28;20224;-67
2022/11/01 04:50:44;;;;;;;7.35;2.97;;;8.20;94.80;;;;;;5052209;28;20203;-68
2022/11/01 04:53:15;;;;;;;10.93;3.60;;;8.20;95.40;;;;;;5051374;28;20270;-67
2022/11/01 04:55:43;;;;;;;9.25;3.40;;;8.20;96.00;;;;;;5051824;28;20244;-67
2022/11/01 04:58:13;;;;;;;6.10;3.15;;;8.30;96.00;;;;;;5051551;28;20572;-68
2022/11/01 05:00:43;;;;;;;8.88;3.28;;;8.30;96.10;;;;;;5052031;28;20201;-67
2022/11/01 05:03:12;;;;;;;3.38;2.40;;;8.30;96.10;;;;;;5051925;28;20183;-67
2022/11/01 05:05:43;;;;;;;4.18;2.97;;;8.40;96.20;;;;;;5051988;28;20213;-67
2022/11/01 05:08:13;;;;;;;8.05;4.00;;;8.40;96.20;;;;;;5051530;28;20195;-68
2022/11/01 05:10:44;;;;;;;6.65;3.20;;;8.50;96.20;;;;;;5052110;28;20194;-67
2022/11/01 05:13:13;;;;;;;6.57;3.42;;;8.40;96.40;;;;;;5051646;28;20187;-68
2022/11/01 05:15:40;;;;;;;5.65;3.65;;;8.30;96.40;;;;;;5050556;28;20197;-68
2022/11/01 05:18:09;;;;;;;6.18;3.10;;;8.30;96.60;;;;;;5052105;28;20202;-68
2022/11/01 05:20:39;;;;;;;9.10;3.20;;;8.30;96.80;;;;;;5051930;28;20198;-67
2022/11/01 05:23:06;;;;;;;5.15;3.60;;;8.40;96.70;;;;;;5051629;28;20239;-66
2022/11/01 05:25:33;;;;;;;6.82;2.70;;;8.50;96.60;;;;;;5051288;28;20221;-66
2022/11/01 05:28:06;;;;;;;7.07;2.75;;;8.50;96.60;;;;;;5051359;28;20233;-67
2022/11/01 05:30:34;;;;;;;6.55;3.00;;;8.60;96.40;;;;;;5051290;28;20644;-67
2022/11/01 05:33:02;;;;;;;4.55;2.53;;;8.60;96.50;;;;;;5050964;28;20195;-66
2022/11/01 05:35:30;;;;;;;4.57;2.88;;;8.60;96.30;;;;;;5051258;28;20194;-67
2022/11/01 05:37:57;;;;;;;4.82;2.30;;;8.50;96.20;;;;;;5051510;28;20198;-67
2022/11/01 05:40:25;;;;;;;5.15;2.65;;;8.60;96.40;;;;;;5051098;28;20190;-66
2022/11/01 05:42:52;;;;;;;6.55;2.45;;;8.60;96.30;;;;;;5051580;28;20224;-66
2022/11/01 05:45:21;;;;;;;6.13;2.95;;;8.80;96.20;;;;;;5051557;28;20187;-66
2022/11/01 05:47:48;;;;;;;8.45;4.03;;;8.90;96.00;;;;;;5051331;28;20309;-68
2022/11/01 05:50:16;;;;;;;4.97;3.38;;;8.90;95.80;;;;;;5051057;28;20240;-68
2022/11/01 05:52:45;;;;;;;6.30;4.25;;;9.00;95.70;;;;;;5051036;28;20209;-68
2022/11/01 05:55:13;;;;;;;5.47;3.08;;;9.00;95.50;;;;;;5051449;28;20248;-66
2022/11/01 05:57:43;;;;;;;4.97;2.30;;;9.10;95.20;;;;;;5050922;28;20241;-67
2022/11/01 06:00:12;;;;;;;3.47;2.42;;;9.10;94.90;;;;;;5051523;28;20234;-67
2022/11/01 06:02:41;;;;;;;5.75;2.50;;;9.10;94.50;;;;;;5051390;28;20190;-69
2022/11/01 06:05:12;;;;;;;3.67;2.47;;;9.10;94.40;;;;;;5051552;28;20194;-67
2022/11/01 06:07:40;;;;;;;3.67;2.50;;;9.10;94.00;;;;;;5050449;28;20264;-67
2022/11/01 06:10:09;;;;;;;4.40;3.00;;;9.00;93.50;;;;;;5051325;28;20656;-68
2022/11/01 06:12:39;;;;;;;6.75;3.05;;;8.90;93.60;;;;;;5050503;28;20190;-68
2022/11/01 06:15:07;;;;;;;6.25;2.83;;;8.90;94.00;;;;;;5051562;28;20190;-66
2022/11/01 06:17:34;;;;;;;6.20;3.38;;;8.90;94.40;;;;;;5050699;28;20260;-66
2022/11/01 06:20:03;;;;;;;7.75;3.10;;;9.00;94.50;;;;;;5051345;28;20194;-66
2022/11/01 06:22:30;;;;;;;4.72;3.50;;;9.00;94.60;;;;;;5050799;28;20201;-66
2022/11/01 06:24:58;;;;;;;5.85;3.42;;;9.10;94.90;;;;;;5050982;28;20245;-67
2022/11/01 06:27:25;;;;;;;7.97;3.83;;;9.10;95.10;;;;;;5050795;28;20229;-67
2022/11/01 06:29:52;;;;;;;4.05;2.65;;;9.10;95.30;;;;;;5051098;28;20190;-66
2022/11/01 06:32:19;;;;;;;8.07;3.30;;;9.20;95.30;;;;;;5050552;28;20190;-66
2022/11/01 06:34:46;;;;;;;9.63;4.07;;;9.20;95.40;;;;;;5048207;28;20206;-67
2022/11/01 06:37:15;;;;;;;10.77;5.00;;;9.30;95.50;;;;;;5048792;28;20245;-66
2022/11/01 06:39:44;;;;;;;10.40;4.65;;;9.40;95.30;;;;;;5049072;28;20178;-68
2022/11/01 06:42:13;;;;;;;9.85;5.30;;;9.40;94.90;;;;;;5047119;28;20291;-69
2022/11/01 06:44:42;;;;;;;14.35;5.05;;;9.50;94.90;;;;;;5043968;28;20564;-68
2022/11/01 06:47:10;;;;;;;10.40;5.97;;;9.60;95.00;;;;;;5044443;28;20225;-69
2022/11/01 06:49:45;;;;;;;12.40;6.25;;;9.70;95.00;;;;;;5046228;28;20198;-70
2022/11/01 06:52:12;;;;;;;15.07;10.23;;;9.70;94.80;;;;;;5048643;28;20280;-67
2022/11/01 06:54:41;;;;;;;19.95;10.50;;;9.80;94.60;;;;;;5049192;28;20187;-68
2022/11/01 06:57:16;;;;;;;15.25;9.77;;;9.90;95.00;;;;;;5049068;28;20553;-67
2022/11/01 06:59:43;;;;;;;9.93;7.75;;;10.00;94.50;;;;;;5049771;28;20189;-67
2022/11/01 07:02:11;;;;;;;11.27;7.82;;;10.00;94.10;;;;;;5051564;28;20277;-67
2022/11/01 07:04:38;;;;;;;8.20;6.65;;;10.00;94.50;;;;;;5050909;28;20240;-68
2022/11/01 07:07:05;;;;;;;6.75;5.22;;;10.00;94.50;;;;;;5049899;28;20307;-68
2022/11/01 07:09:34;;;;;;;9.35;5.65;;;10.20;94.70;;;;;;5045543;28;20193;-67
2022/11/01 07:12:03;;;;;;;7.35;5.53;;;10.20;94.80;;;;;;5050757;28;20612;-66
2022/11/01 07:14:31;;;;;;;9.45;6.72;;;10.40;94.70;;;;;;5044027;28;20201;-67
2022/11/01 07:16:59;;;;;;;9.27;6.10;;;10.50;94.80;;;;;;5049578;28;20222;-67
2022/11/01 07:19:26;;;;;;;8.90;5.40;;;10.60;95.00;;;;;;5050643;28;21091;-67
2022/11/01 07:21:54;;;;;;;9.77;5.53;;;10.70;95.10;;;;;;5050533;28;20194;-67
2022/11/01 07:24:22;;;;;;;10.02;5.00;;;10.70;95.10;;;;;;5050728;28;20186;-68
2022/11/01 07:26:49;;;;;;;7.53;5.20;;;10.80;95.50;;;;;;5045932;28;20677;-67
2022/11/01 07:29:19;;;;;;;8.75;5.13;;;10.80;95.70;;;;;;5050469;28;20195;-68
2022/11/01 07:31:46;;;;;;;12.38;6.32;;;10.90;95.90;;;;;;5050390;28;20287;-68
2022/11/01 07:34:15;;;;;;;9.93;5.90;;;11.00;96.10;;;;;;5046813;28;20194;-67
2022/11/01 07:36:42;;;;;;;15.13;6.88;;;11.20;96.40;;;;;;5043363;28;20225;-68
2022/11/01 07:39:10;;;;;;;12.52;5.35;;;11.30;96.50;;;;;;5044470;28;20193;-67
2022/11/01 07:41:40;;;;;;;9.85;5.20;;;11.50;96.70;;;;;;5042786;28;20194;-67
2022/11/01 07:44:15;;;;;;;9.52;5.93;;;11.70;96.80;;;;;;5046518;28;20186;-68
2022/11/01 07:46:44;;;;;;;12.10;6.65;;;11.90;96.90;;;;;;5051465;28;20572;-68
2022/11/01 07:49:15;;;;;;;9.98;5.45;;;12.20;96.90;;;;;;5049203;28;20191;-66
2022/11/01 07:51:43;;;;;;;9.50;5.43;;;12.60;97.10;;;;;;5049767;28;20190;-66
2022/11/01 07:54:11;;;;;;;8.43;6.90;;;13.00;97.00;;;;;;5047745;28;20248;-66
2022/11/01 07:56:38;;;;;;;8.68;4.35;;;13.30;96.60;;;;;;5043034;28;20217;-68
2022/11/01 07:59:10;;;;;;;8.23;3.97;;;13.70;96.00;;;;;;5050891;28;20191;-67
2022/11/01 08:01:37;;;;;;;9.00;4.10;;;14.00;95.20;;;;;;5052750;28;20442;-66
2022/11/01 08:04:06;;;;;;;8.13;3.87;;;14.20;94.80;;;;;;5054485;28;20852;-66
2022/11/01 08:06:33;;;;;;;10.70;4.37;;;14.40;94.40;;;;;;5053355;28;20488;-67
2022/11/01 08:08:59;;;;;;;5.37;3.63;;;14.50;94.00;;;;;;5053153;28;20502;-66
2022/11/01 08:11:27;;;;;;;6.33;3.43;;;14.70;93.60;;;;;;5054303;28;20480;-66
2022/11/01 08:13:54;;;;;;;4.90;2.90;;;14.90;93.60;;;;;;5054114;28;20532;-66
2022/11/01 08:16:21;;;;;;;8.67;3.50;;;15.10;93.60;;;;;;5054035;28;20514;-66
2022/11/01 08:18:50;;;;;;;7.33;3.00;;;15.30;93.80;;;;;;5053933;28;20480;-67
2022/11/01 08:21:18;;;;;;;10.40;3.33;;;15.70;93.40;;;;;;5053908;28;20542;-66
2022/11/01 08:23:45;;;;;;;7.50;2.97;;;16.00;91.90;;;;;;5053753;28;20441;-67
2022/11/01 08:26:13;;;;;;;12.30;4.50;;;16.30;91.80;;;;;;5053996;28;20927;-67
2022/11/01 08:28:40;;;;;;;6.50;3.90;;;16.60;90.50;;;;;;5053800;28;20530;-67
2022/11/01 08:31:08;;;;;;;7.63;4.20;;;16.80;90.10;;;;;;5054014;28;20444;-72
2022/11/01 08:33:36;;;;;;;8.13;4.13;;;17.00;89.50;;;;;;5053978;28;20440;-67
2022/11/01 08:36:03;;;;;;;28.43;4.57;;;17.10;87.30;;;;;;5053971;28;20477;-67
2022/11/01 08:38:31;;;;;;;8.80;4.33;;;17.10;87.10;;;;;;5053722;28;21049;-67
2022/11/01 08:40:59;;;;;;;8.10;4.07;;;17.20;86.50;;;;;;5053839;28;20473;-67
2022/11/01 08:43:26;;;;;;;6.00;4.33;;;17.30;86.70;;;;;;5053797;28;20532;-67
2022/11/01 08:45:53;;;;;;;8.07;4.00;;;17.40;87.10;;;;;;5053569;28;20472;-67
2022/11/01 08:48:20;;;;;;;10.07;4.13;;;17.60;87.20;;;;;;5053614;28;20512;-67
2022/11/01 08:50:48;;;;;;;7.70;3.30;;;17.90;86.60;;;;;;5053609;28;20498;-67
2022/11/01 08:53:15;;;;;;;9.90;4.03;;;18.20;85.70;;;;;;5053413;28;20946;-67
2022/11/01 08:55:43;;;;;;;10.90;4.20;;;18.40;84.70;;;;;;5053656;28;20449;-68
2022/11/01 08:58:11;;;;;;;5.10;3.33;;;18.70;84.30;;;;;;5053483;28;20472;-68
2022/11/01 09:00:38;;;;;;;11.00;4.10;;;18.90;84.30;;;;;;5053456;28;20499;-68
2022/11/01 09:03:05;;;;;;;7.60;3.40;;;19.20;83.30;;;;;;5053651;28;20447;-67
2022/11/01 09:05:32;;;;;;;6.87;3.50;;;19.70;78.30;;;;;;5053424;28;20473;-67
2022/11/01 09:07:59;;;;;;;14.17;4.30;;;20.00;77.70;;;;;;5052520;28;20484;-68
2022/11/01 09:10:28;;;;;;;9.30;3.10;;;20.30;74.90;;;;;;5053351;28;20477;-68
2022/11/01 09:12:56;;;;;;;11.30;5.20;;;20.50;73.60;;;;;;5053405;28;20790;-67
2022/11/01 09:15:23;;;;;;;12.83;4.33;;;21.00;73.50;;;;;;5052959;28;20539;-67
2022/11/01 09:17:50;;;;;;;7.90;3.73;;;21.70;67.40;;;;;;5052991;28;20492;-67
2022/11/01 09:20:18;;;;;;;10.47;3.40;;;22.20;64.90;;;;;;5052819;28;20488;-67
2022/11/01 09:22:45;;;;;;;6.77;3.77;;;22.60;65.10;;;;;;5053025;28;20441;-68
2022/11/01 09:25:12;;;;;;;14.20;3.53;;;22.90;62.10;;;;;;5052826;28;20517;-68
2022/11/01 09:27:39;;;;;;;12.40;6.23;;;22.90;59.30;;;;;;5052980;28;20488;-68
2022/11/01 09:30:09;;;;;;;13.90;5.17;;;22.80;60.00;;;;;;5053065;28;20536;-68
2022/11/01 09:32:36;;;;;;;10.60;4.40;;;22.50;58.90;;;;;;5052840;28;20473;-69
2022/11/01 09:35:04;;;;;;;8.00;3.90;;;22.20;58.80;;;;;;5052903;28;20445;-68
2022/11/01 09:37:31;;;;;;;7.47;3.57;;;21.80;58.60;;;;;;5052977;28;20449;-66
2022/11/01 09:39:58;;;;;;;5.10;3.03;;;21.50;58.10;;;;;;5052796;28;20444;-67
2022/11/01 09:42:31;;;;;;;9.37;3.37;;;21.10;59.20;;;;;;5053008;28;20479;-67
2022/11/01 09:45:04;;;;;;;4.87;3.10;;;20.70;60.00;;;;;;5052978;28;20441;-66
2022/11/01 09:47:35;;;;;;;8.93;4.00;;;20.60;61.50;;;;;;5052955;28;20481;-66
2022/11/01 09:50:13;;;;;;;6.40;3.17;;;20.40;62.00;;;;;;5052922;28;20480;-67
2022/11/01 09:52:41;;;;;;;10.10;3.17;;;20.30;61.50;;;;;;5052661;28;20480;-68
2022/11/01 09:55:14;;;;;;;6.73;3.73;;;20.10;62.10;;;;;;5052899;28;20824;-68
2022/11/01 09:57:45;;;;;;;7.83;3.73;;;20.00;62.80;;;;;;5052492;28;20473;-68
2022/11/01 10:00:15;;;;;;;9.17;3.80;;;19.90;63.20;;;;;;5052916;28;20416;-67
2022/11/01 10:03:16;;;;;;;8.10;2.80;;;19.80;63.40;;;;;;5052959;28;20516;-67
2022/11/01 10:05:55;;;;;;;9.80;3.27;;;19.70;63.90;;;;;;5052737;28;20452;-67
2022/11/01 10:08:44;;;;;;;9.83;3.40;;;19.60;64.30;;;;;;5052643;28;20533;-66
2022/11/01 10:11:28;;;;;;;9.60;4.00;;;19.50;64.20;;;;;;5052894;28;20506;-67
2022/11/01 10:14:01;;;;;;;8.97;4.23;;;19.30;64.20;;;;;;5052110;28;20472;-67
2022/11/01 10:16:35;;;;;;;8.20;3.37;;;19.40;66.10;;;;;;5052241;28;20495;-67
2022/11/01 10:19:10;;;;;;;6.50;3.40;;;19.60;67.50;;;;;;5054830;28;20922;-67
2022/11/01 10:21:43;;;;;;;11.43;5.10;;;20.10;68.80;;;;;;5056287;28;20435;-68
2022/11/01 10:24:21;;;;;;;7.63;3.10;;;21.00;68.60;;;;;;5056026;28;20477;-68
2022/11/01 10:26:50;;;;;;;9.73;3.50;;;22.20;64.00;;;;;;5056347;28;21016;-67
2022/11/01 10:29:24;;;;;;;6.53;3.10;;;23.00;62.50;;;;;;5056040;28;20523;-67
2022/11/01 10:31:54;;;;;;;6.70;2.57;;;23.70;60.20;;;;;;5056432;28;20473;-67
2022/11/01 10:34:26;;;;;;;5.63;2.43;;;24.10;56.20;;;;;;5056027;28;20833;-67
2022/11/01 10:37:01;;;;;;;4.50;2.13;;;24.20;54.10;;;;;;5056103;28;20463;-66
2022/11/01 10:39:35;;;;;;;8.43;3.20;;;24.40;53.00;;;;;;5056133;28;20515;-66
2022/11/01 10:42:09;;;;;;;6.03;3.40;;;24.40;52.20;;;;;;5056085;28;20436;-66
2022/11/01 10:44:41;;;;;;;7.93;2.60;;;24.40;51.70;;;;;;5056221;28;20532;-66
2022/11/01 10:47:14;;;;;;;10.17;3.37;;;24.20;50.30;;;;;;5055953;28;20475;-66
2022/11/01 10:49:48;;;;;;;9.57;2.60;;;24.10;50.90;;;;;;5056019;28;20473;-67
2022/11/01 10:52:19;;;;;;;8.43;3.40;;;23.90;51.00;;;;;;5055990;28;20833;-67
2022/11/01 10:54:47;;;;;;;10.13;4.70;;;24.00;51.40;;;;;;5056826;28;20499;-67
2022/11/01 10:57:25;;;;;;;6.33;3.20;;;23.80;50.50;;;;;;5057795;28;20480;-68
2022/11/01 10:59:55;;;;;;;7.13;3.40;;;23.50;50.50;;;;;;5058956;28;20445;-67
2022/11/01 11:02:27;;;;;;;10.60;3.20;;;23.30;50.80;;;;;;5057954;28;20463;-67
2022/11/01 11:04:57;;;;;;;6.93;3.20;;;22.90;51.10;;;;;;5058447;28;20492;-66
2022/11/01 11:07:29;;;;;;;4.70;2.53;;;22.60;51.30;;;;;;5058049;28;20448;-66
2022/11/01 11:09:57;;;;;;;5.27;1.80;;;22.30;52.00;;;;;;5057776;28;20817;-66
2022/11/01 11:12:26;;;;;;;13.33;3.90;;;22.10;52.80;;;;;;5057984;28;20460;-65
2022/11/01 11:14:57;;;;;;;7.10;3.87;;;22.00;53.50;;;;;;5054800;28;20437;-66
2022/11/01 11:17:28;;;;;;;8.10;2.53;;;21.90;53.80;;;;;;5055133;28;20978;-67
2022/11/01 11:20:03;;;;;;;6.67;3.07;;;21.90;52.90;;;;;;5055193;28;20452;-67
2022/11/01 11:22:31;;;;;;;8.20;3.10;;;21.90;52.90;;;;;;5055329;28;20452;-66
2022/11/01 11:24:58;;;;;;;11.23;2.70;;;21.90;52.40;;;;;;5054835;28;20481;-66
2022/11/01 11:27:28;;;;;;;8.93;4.30;;;21.80;53.30;;;;;;5055117;28;20551;-67
2022/11/01 11:29:57;;;;;;;10.30;5.77;;;21.60;53.00;;;;;;5054258;28;20473;-66
2022/11/01 11:32:26;;;;;;;11.27;4.60;;;21.60;53.20;;;;;;5055170;28;20530;-66
2022/11/01 11:34:58;;;;;;;16.63;3.30;;;21.40;53.60;;;;;;5054961;28;20951;-66
2022/11/01 11:37:28;;;;;;;4.47;2.30;;;21.30;53.70;;;;;;5054797;28;20489;-66
2022/11/01 11:40:24;;;;;;;14.13;3.70;;;21.20;54.00;;;;;;5054777;28;20476;-65
2022/11/01 11:42:53;;;;;;;7.50;1.83;;;21.10;54.20;;;;;;5042239;28;20532;-66
2022/11/01 11:45:23;;;;;;;8.50;3.67;;;21.00;54.10;;;;;;5054911;28;20499;-66
2022/11/01 11:47:51;;;;;;;11.43;3.77;;;20.90;54.60;;;;;;5054474;28;20464;-66
2022/11/01 11:50:31;;;;;;;12.00;3.70;;;20.90;54.90;;;;;;5054842;28;20478;-66
2022/11/01 11:53:00;;;;;;;9.43;3.17;;;20.70;54.90;;;;;;5054541;28;20538;-66
2022/11/01 11:55:36;;;;;;;6.67;2.70;;;20.70;55.50;;;;;;5054704;28;20954;-66
2022/11/01 11:58:05;;;;;;;4.03;2.10;;;20.60;55.70;;;;;;5054977;28;20507;-66
2022/11/01 12:00:38;;;;;;;5.20;2.23;;;20.50;56.30;;;;;;5054679;28;20930;-65
2022/11/01 12:03:06;;;;;;;6.60;2.43;;;20.40;55.90;;;;;;5054589;28;20445;-66
2022/11/01 12:05:35;;;;;;;4.50;2.30;;;20.50;56.40;;;;;;5054644;28;20440;-66
2022/11/01 12:08:02;;;;;;;8.40;2.80;;;20.50;56.90;;;;;;5054423;28;20615;-65
2022/11/01 12:10:32;;;;;;;6.03;3.03;;;20.50;56.20;;;;;;5054493;28;20429;-67
2022/11/01 12:13:00;;;;;;;5.67;2.33;;;20.50;55.40;;;;;;5054394;28;20437;-66
2022/11/01 12:15:31;;;;;;;4.03;2.00;;;20.50;55.30;;;;;;5054340;28;20480;-66
2022/11/01 12:18:10;;;;;;;7.20;2.23;;;20.40;55.10;;;;;;5053904;28;20473;-66
2022/11/01 12:20:39;;;;;;;5.23;2.47;;;20.40;55.60;;;;;;5053820;28;20953;-67
2022/11/01 12:23:12;;;;;;;5.50;1.90;;;20.50;55.90;;;;;;5054287;28;20433;-67
2022/11/01 12:25:43;;;;;;;7.73;3.40;;;20.50;56.30;;;;;;5054208;28;20440;-66
2022/11/01 12:28:21;;;;;;;8.40;2.47;;;20.50;56.30;;;;;;5053831;28;20515;-66
2022/11/01 12:30:49;;;;;;;5.43;2.80;;;20.40;56.10;;;;;;5053915;28;20927;-66
2022/11/01 12:33:24;;;;;;;5.53;2.93;;;20.40;56.30;;;;;;5053403;28;20484;-66
2022/11/01 12:35:54;;;;;;;5.43;2.37;;;20.30;56.30;;;;;;5054214;28;20853;-66
2022/11/01 12:38:39;;;;;;;5.10;2.10;;;20.70;57.90;;;;;;5053901;28;20437;-67
2022/11/01 12:41:16;;;;;;;13.37;2.63;;;21.70;57.30;;;;;;5053802;28;20459;-66
2022/11/01 12:43:55;;;;;;;7.87;1.83;;;22.20;54.90;;;;;;5053715;28;20475;-66
2022/11/01 12:46:34;;;;;;;5.67;2.23;;;22.20;54.10;;;;;;5053650;28;20906;-66
2022/11/01 12:49:06;;;;;;;9.13;3.13;;;22.00;52.80;;;;;;5053618;28;21002;-66
2022/11/01 12:51:40;;;;;;;7.37;2.33;;;21.70;52.50;;;;;;5053683;28;20532;-67
2022/11/01 12:54:12;;;;;;;7.60;2.10;;;21.40;52.80;;;;;;5053630;28;20436;-67
2022/11/01 12:56:39;;;;;;;5.57;2.50;;;21.20;52.80;;;;;;5053669;28;20441;-66
2022/11/01 12:59:11;;;;;;;6.33;2.03;;;21.00;52.80;;;;;;5053706;28;20464;-67
2022/11/01 13:01:46;;;;;;;9.70;2.10;;;20.80;53.10;;;;;;5054127;28;20418;-66
2022/11/01 13:04:20;;;;;;;4.83;1.97;;;20.60;53.00;;;;;;5053961;28;20437;-65
2022/11/01 13:07:20;;;;;;;4.30;1.77;;;20.40;53.20;;;;;;5053422;28;20436;-66
2022/11/01 13:10:01;;;;;;;4.70;1.67;;;20.20;53.80;;;;;;5053313;28;20539;-66
2022/11/01 13:12:42;;;;;;;4.03;1.60;;;20.00;54.10;;;;;;5053165;28;20437;-67
2022/11/01 13:15:16;;;;;;;6.50;2.70;;;19.90;54.80;;;;;;5052831;28;20428;-66
2022/11/01 13:17:51;;;;;;;7.40;1.80;;;19.70;55.20;;;;;;5053126;28;20531;-68
2022/11/01 13:20:37;;;;;;;4.33;2.10;;;19.60;55.50;;;;;;5053282;28;20494;-66